Time;durP1;ratioP1;P1;durP2;ratioP2;P2;SDS_P1;SDS_P2;PMS_P1;PMS_P2;Temp;Humidity;BMP_temperature;BMP_pressure;BME280_temperature;BME280_humidity;BME280_pressure;Samples;Min_cycle;Max_cycle;Signal;HPM_P1;HPM_P2
2021/06/05 00:00:55;;;;;;;18.43;16.60;;;19.00;98.30;;;;;;4045756;29;20476;-82
2021/06/05 00:02:59;;;;;;;15.80;14.40;;;18.90;98.30;;;;;;4048431;29;20472;-82
2021/06/05 00:05:03;;;;;;;16.93;15.33;;;18.90;98.30;;;;;;4048807;29;20472;-82
2021/06/05 00:07:05;;;;;;;18.70;15.73;;;18.90;98.30;;;;;;4047450;29;20531;-82
2021/06/05 00:09:09;;;;;;;18.23;15.37;;;18.90;98.30;;;;;;4050184;29;20497;-82
2021/06/05 00:11:13;;;;;;;17.40;15.70;;;18.90;98.30;;;;;;4048355;29;20476;-82
2021/06/05 00:13:20;;;;;;;17.40;15.50;;;18.90;98.30;;;;;;4048450;29;20475;-82
2021/06/05 00:15:27;;;;;;;17.60;15.97;;;18.90;98.30;;;;;;4048831;29;20476;-81
2021/06/05 00:17:30;;;;;;;17.37;15.67;;;18.90;98.30;;;;;;4051835;29;21276;-81
2021/06/05 00:19:32;;;;;;;16.83;15.23;;;18.90;98.30;;;;;;4053734;29;21004;-81
2021/06/05 00:21:35;;;;;;;21.27;17.77;;;18.90;98.30;;;;;;4052660;29;20524;-83
2021/06/05 00:23:38;;;;;;;17.50;15.63;;;18.80;98.30;;;;;;4052892;29;20474;-81
2021/06/05 00:25:40;;;;;;;18.30;16.70;;;18.80;98.30;;;;;;4050307;29;20508;-82
2021/06/05 00:27:43;;;;;;;18.30;16.50;;;18.70;98.30;;;;;;4052160;29;20464;-82
2021/06/05 00:29:45;;;;;;;18.73;16.83;;;18.80;98.30;;;;;;4051205;29;20468;-82
2021/06/05 00:31:49;;;;;;;19.60;17.60;;;18.70;98.30;;;;;;4051447;29;20527;-80
2021/06/05 00:33:52;;;;;;;19.33;17.60;;;18.70;98.30;;;;;;4049279;29;20467;-82
2021/06/05 00:35:55;;;;;;;20.30;17.80;;;18.50;98.30;;;;;;4052899;29;20482;-81
2021/06/05 00:37:58;;;;;;;19.47;17.37;;;18.50;98.30;;;;;;4053487;29;20507;-82
2021/06/05 00:40:01;;;;;;;19.67;17.80;;;18.30;98.30;;;;;;4055130;29;20560;-82
2021/06/05 00:42:04;;;;;;;19.57;17.47;;;18.20;98.30;;;;;;4055775;29;20912;-81
2021/06/05 00:44:09;;;;;;;19.47;17.67;;;18.40;98.30;;;;;;4053895;29;20480;-81
2021/06/05 00:46:13;;;;;;;19.07;17.07;;;18.40;98.30;;;;;;4054791;29;20515;-82
2021/06/05 00:48:18;;;;;;;20.97;18.57;;;18.30;98.30;;;;;;4052568;29;20476;-82
2021/06/05 00:50:22;;;;;;;21.63;19.40;;;18.20;98.30;;;;;;4051527;29;20472;-81
2021/06/05 00:52:26;;;;;;;19.57;17.70;;;18.20;98.30;;;;;;4051482;29;20476;-81
2021/06/05 00:54:29;;;;;;;20.97;18.73;;;18.20;98.30;;;;;;4047318;29;20476;-81
2021/06/05 00:56:32;;;;;;;20.00;17.83;;;18.10;98.30;;;;;;4053836;29;20483;-82
2021/06/05 00:58:36;;;;;;;21.13;19.13;;;18.20;98.30;;;;;;4053587;29;21048;-81
2021/06/05 01:00:42;;;;;;;20.80;18.80;;;18.10;98.30;;;;;;4053009;29;21108;-82
2021/06/05 01:02:44;;;;;;;20.00;18.00;;;18.10;98.30;;;;;;4054367;29;20476;-82
2021/06/05 01:04:48;;;;;;;21.17;19.17;;;18.10;98.30;;;;;;4052638;29;20475;-81
2021/06/05 01:06:55;;;;;;;20.60;18.60;;;18.00;98.30;;;;;;4051270;29;20508;-81
2021/06/05 01:09:04;;;;;;;20.27;18.37;;;18.10;98.30;;;;;;4052409;29;20483;-82
2021/06/05 01:11:17;;;;;;;21.63;18.33;;;18.20;98.30;;;;;;4052831;29;20482;-82
2021/06/05 01:13:25;;;;;;;21.67;19.60;;;18.00;98.30;;;;;;4050520;29;20539;-82
2021/06/05 01:15:31;;;;;;;20.43;18.33;;;18.10;98.30;;;;;;4050594;29;20536;-81
2021/06/05 01:17:37;;;;;;;20.53;18.63;;;18.20;98.30;;;;;;4056049;29;21012;-81
2021/06/05 01:19:53;;;;;;;19.70;17.70;;;18.30;98.30;;;;;;4052930;29;21117;-82
2021/06/05 01:22:06;;;;;;;22.00;19.77;;;18.30;98.30;;;;;;4050828;29;20491;-82
2021/06/05 01:24:19;;;;;;;20.30;18.47;;;18.30;98.30;;;;;;4049296;29;20531;-81
2021/06/05 01:26:28;;;;;;;19.53;17.53;;;18.30;98.30;;;;;;4053866;29;20510;-82
2021/06/05 01:28:34;;;;;;;19.43;17.40;;;18.30;98.30;;;;;;4054380;29;20491;-81
2021/06/05 01:30:41;;;;;;;20.10;18.20;;;18.40;98.30;;;;;;4053926;29;20459;-81
2021/06/05 01:32:46;;;;;;;20.20;16.03;;;18.40;98.30;;;;;;4054992;29;20520;-82
2021/06/05 01:34:52;;;;;;;18.87;17.13;;;18.50;98.30;;;;;;4054228;29;20484;-82
2021/06/05 01:36:56;;;;;;;21.37;18.60;;;18.50;98.30;;;;;;4054350;29;20492;-82
2021/06/05 01:39:04;;;;;;;20.37;18.37;;;18.50;98.30;;;;;;4055526;29;20460;-82
2021/06/05 01:41:09;;;;;;;23.03;18.20;;;18.60;98.30;;;;;;4055046;29;21281;-81
2021/06/05 01:43:15;;;;;;;20.90;18.80;;;18.60;98.30;;;;;;4056729;29;20468;-81
2021/06/05 01:45:21;;;;;;;21.33;19.23;;;18.50;98.30;;;;;;4057045;29;20476;-82
2021/06/05 01:47:24;;;;;;;20.20;18.23;;;18.40;98.30;;;;;;4055288;29;20499;-80
2021/06/05 01:49:26;;;;;;;20.60;18.70;;;18.50;98.30;;;;;;4052934;29;20496;-82
2021/06/05 01:51:30;;;;;;;21.37;19.20;;;18.50;98.30;;;;;;4052865;29;20850;-81
2021/06/05 01:53:36;;;;;;;20.97;18.90;;;18.50;98.30;;;;;;4053092;29;20577;-82
2021/06/05 01:55:43;;;;;;;20.77;18.63;;;18.50;98.30;;;;;;4052000;29;20463;-81
2021/06/05 01:57:50;;;;;;;22.67;20.57;;;18.50;98.30;;;;;;4053334;29;22893;-82
2021/06/05 01:59:55;;;;;;;21.23;19.33;;;18.60;98.30;;;;;;4054967;29;20475;-82
2021/06/05 02:01:58;;;;;;;21.10;19.00;;;18.50;98.30;;;;;;4055827;29;20481;-82
2021/06/05 02:04:00;;;;;;;21.00;19.13;;;18.40;98.30;;;;;;4054804;29;20570;-81
2021/06/05 02:06:03;;;;;;;21.70;19.60;;;18.20;98.30;;;;;;4055586;29;20512;-82
2021/06/05 02:08:07;;;;;;;23.03;20.60;;;18.10;98.30;;;;;;4056461;29;20468;-81
2021/06/05 02:10:16;;;;;;;22.47;20.37;;;17.90;98.30;;;;;;4055733;29;20890;-82
2021/06/05 02:12:23;;;;;;;23.67;21.47;;;17.90;98.30;;;;;;4055770;29;20471;-81
2021/06/05 02:14:33;;;;;;;23.70;21.50;;;17.90;98.30;;;;;;4054803;29;20552;-82
2021/06/05 02:16:41;;;;;;;23.77;21.33;;;17.80;98.30;;;;;;4056207;29;20502;-82
2021/06/05 02:18:47;;;;;;;23.63;21.33;;;17.80;98.30;;;;;;4054929;29;20498;-82
2021/06/05 02:20:54;;;;;;;22.83;20.40;;;17.80;98.30;;;;;;4052654;29;20512;-82
2021/06/05 02:22:59;;;;;;;21.73;19.60;;;17.80;98.30;;;;;;4051889;29;20467;-81
2021/06/05 02:25:05;;;;;;;22.13;19.93;;;17.70;98.30;;;;;;4052455;29;20496;-81
2021/06/05 02:27:08;;;;;;;20.43;18.40;;;17.70;98.30;;;;;;4051684;29;20559;-81
2021/06/05 02:29:14;;;;;;;24.40;20.30;;;17.80;98.30;;;;;;4052614;29;20486;-82
2021/06/05 02:31:16;;;;;;;23.87;20.93;;;17.70;98.30;;;;;;4051658;29;20563;-81
2021/06/05 02:33:21;;;;;;;22.63;20.23;;;17.60;98.30;;;;;;4053035;29;20572;-82
2021/06/05 02:35:28;;;;;;;22.93;20.47;;;17.60;98.30;;;;;;4053033;29;20996;-82
2021/06/05 02:37:31;;;;;;;22.63;20.53;;;17.60;98.30;;;;;;4053365;29;20491;-82
2021/06/05 02:39:34;;;;;;;24.07;21.67;;;17.60;98.30;;;;;;4053653;29;20816;-81
2021/06/05 02:41:40;;;;;;;22.40;20.10;;;17.60;98.30;;;;;;4055785;29;20480;-82
2021/06/05 02:43:44;;;;;;;21.97;19.67;;;17.60;98.30;;;;;;4055125;29;20468;-82
2021/06/05 02:45:52;;;;;;;22.33;20.10;;;17.60;98.30;;;;;;4055097;29;20476;-80
2021/06/05 02:47:57;;;;;;;23.50;21.10;;;17.60;98.30;;;;;;4056179;29;20467;-81
2021/06/05 02:50:07;;;;;;;23.80;21.30;;;17.50;98.30;;;;;;4054682;29;20468;-82
2021/06/05 02:52:28;;;;;;;21.37;19.37;;;17.50;98.30;;;;;;4047923;29;20499;-83
2021/06/05 02:54:30;;;;;;;22.77;20.37;;;17.60;98.30;;;;;;4051535;29;20479;-82
2021/06/05 02:56:33;;;;;;;20.63;18.67;;;17.60;98.30;;;;;;4053527;29;20496;-81
2021/06/05 02:58:36;;;;;;;24.87;22.10;;;17.80;98.30;;;;;;4052470;29;20496;-81
2021/06/05 03:00:40;;;;;;;25.70;23.10;;;17.80;98.30;;;;;;4050662;29;20537;-81
2021/06/05 03:02:43;;;;;;;23.27;20.93;;;17.80;98.30;;;;;;4051999;29;20472;-81
2021/06/05 03:04:45;;;;;;;24.27;20.40;;;17.70;98.30;;;;;;4050406;29;20490;-81
2021/06/05 03:06:50;;;;;;;20.83;18.80;;;17.50;98.30;;;;;;4054025;29;20502;-82
2021/06/05 03:08:52;;;;;;;21.87;19.87;;;17.50;98.30;;;;;;4052589;29;20473;-82
2021/06/05 03:10:55;;;;;;;23.17;19.43;;;17.50;98.30;;;;;;4054212;29;20465;-81
2021/06/05 03:12:58;;;;;;;26.60;20.77;;;17.50;98.30;;;;;;4053792;29;20537;-82
2021/06/05 03:15:04;;;;;;;21.43;19.43;;;17.50;98.30;;;;;;4049410;29;20480;-81
2021/06/05 03:17:07;;;;;;;19.70;17.70;;;17.60;98.30;;;;;;4048216;29;20501;-82
2021/06/05 03:19:10;;;;;;;29.97;26.77;;;17.70;98.30;;;;;;4052093;29;20491;-81
2021/06/05 03:21:15;;;;;;;19.90;18.00;;;17.60;98.30;;;;;;4050651;29;20558;-82
2021/06/05 03:23:22;;;;;;;19.07;17.20;;;17.50;98.30;;;;;;4051080;29;20472;-82
2021/06/05 03:25:25;;;;;;;18.53;16.70;;;17.60;98.30;;;;;;4045874;29;20896;-81
2021/06/05 03:27:27;;;;;;;18.80;17.00;;;17.60;98.30;;;;;;4052245;29;20583;-82
2021/06/05 03:29:30;;;;;;;24.13;19.93;;;17.60;98.30;;;;;;4047556;29;20476;-82
2021/06/05 03:31:33;;;;;;;25.10;22.17;;;17.80;98.30;;;;;;4051445;29;20966;-81
2021/06/05 03:33:36;;;;;;;24.47;21.13;;;17.70;98.30;;;;;;4049180;29;20547;-82
2021/06/05 03:35:38;;;;;;;19.10;17.30;;;17.80;98.30;;;;;;4048707;29;20477;-82
2021/06/05 03:37:41;;;;;;;17.83;16.23;;;17.70;98.30;;;;;;4049152;29;20599;-81
2021/06/05 03:39:45;;;;;;;18.07;16.13;;;17.70;98.30;;;;;;4048265;29;20472;-82
2021/06/05 03:41:47;;;;;;;17.47;15.77;;;17.70;98.30;;;;;;4051086;29;20476;-81
2021/06/05 03:43:50;;;;;;;15.43;13.93;;;17.70;98.30;;;;;;4051789;29;20479;-82
2021/06/05 03:45:53;;;;;;;16.77;15.20;;;17.70;98.30;;;;;;4052905;29;20478;-81
2021/06/05 03:47:56;;;;;;;17.47;15.00;;;17.80;98.30;;;;;;4051010;29;20473;-82
2021/06/05 03:49:58;;;;;;;17.60;15.90;;;17.80;98.30;;;;;;4050826;29;20472;-81
2021/06/05 03:52:02;;;;;;;17.23;15.47;;;17.70;98.30;;;;;;4047783;29;20514;-81
2021/06/05 03:54:05;;;;;;;17.37;15.67;;;17.70;98.30;;;;;;4052253;29;20842;-81
2021/06/05 03:56:09;;;;;;;19.40;15.87;;;17.70;98.30;;;;;;4051036;29;20857;-81
2021/06/05 03:58:12;;;;;;;18.13;16.33;;;17.60;98.30;;;;;;4051637;29;20500;-82
2021/06/05 04:00:18;;;;;;;23.87;20.77;;;17.50;98.30;;;;;;4048378;29;20473;-81
2021/06/05 04:02:20;;;;;;;22.70;18.70;;;17.50;98.30;;;;;;4050453;29;20477;-81
2021/06/05 04:04:23;;;;;;;16.37;14.97;;;17.50;98.30;;;;;;4052018;29;20533;-82
2021/06/05 04:06:27;;;;;;;17.33;15.73;;;17.50;98.30;;;;;;4052512;29;20503;-82
2021/06/05 04:08:29;;;;;;;16.60;15.00;;;17.70;98.30;;;;;;4053080;29;20563;-82
2021/06/05 04:10:34;;;;;;;15.80;14.30;;;17.60;98.30;;;;;;4052685;29;20479;-82
2021/06/05 04:12:38;;;;;;;17.43;15.83;;;17.60;98.30;;;;;;4050798;29;20902;-81
2021/06/05 04:14:43;;;;;;;23.10;20.70;;;17.60;98.30;;;;;;4049972;29;20476;-81
2021/06/05 04:16:45;;;;;;;21.60;19.27;;;17.50;98.30;;;;;;4049582;29;20842;-81
2021/06/05 04:18:48;;;;;;;18.47;16.30;;;17.60;98.30;;;;;;4051644;29;20488;-81
2021/06/05 04:20:51;;;;;;;17.27;15.57;;;17.60;98.30;;;;;;4050083;29;20558;-82
2021/06/05 04:22:54;;;;;;;17.83;16.13;;;17.50;98.30;;;;;;4048223;29;20545;-81
2021/06/05 04:24:57;;;;;;;20.90;16.03;;;17.50;98.30;;;;;;4049170;29;20551;-81
2021/06/05 04:26:59;;;;;;;17.47;15.73;;;17.50;98.30;;;;;;4049445;29;20506;-82
2021/06/05 04:29:03;;;;;;;18.17;16.37;;;17.50;98.30;;;;;;4049120;29;20465;-82
2021/06/05 04:31:07;;;;;;;17.70;15.77;;;17.50;98.30;;;;;;4048465;29;20566;-81
2021/06/05 04:33:10;;;;;;;16.90;15.40;;;17.50;98.30;;;;;;4048788;29;20472;-81
2021/06/05 04:35:13;;;;;;;17.13;15.50;;;17.50;98.30;;;;;;4051418;29;20472;-82
2021/06/05 04:37:16;;;;;;;20.93;17.53;;;17.50;98.30;;;;;;4046865;29;20500;-81
2021/06/05 04:39:18;;;;;;;18.80;17.07;;;17.70;98.30;;;;;;4050323;29;20495;-82
2021/06/05 04:41:21;;;;;;;19.03;17.20;;;17.80;98.30;;;;;;4053135;29;20472;-81
2021/06/05 04:43:24;;;;;;;21.87;18.33;;;17.90;98.30;;;;;;4049637;29;20476;-81
2021/06/05 04:45:28;;;;;;;18.23;16.63;;;17.90;98.30;;;;;;4050837;29;20500;-81
2021/06/05 04:47:31;;;;;;;22.77;20.67;;;17.80;98.30;;;;;;4047691;29;20590;-81
2021/06/05 04:49:34;;;;;;;17.93;16.10;;;17.90;98.30;;;;;;4051125;29;20468;-81
2021/06/05 04:51:36;;;;;;;17.20;15.80;;;17.80;98.30;;;;;;4053326;29;21067;-81
2021/06/05 04:53:39;;;;;;;17.67;16.10;;;17.90;98.30;;;;;;4055954;29;20472;-81
2021/06/05 04:55:41;;;;;;;17.23;15.63;;;18.10;98.30;;;;;;4052938;29;20535;-81
2021/06/05 04:57:44;;;;;;;16.83;15.23;;;18.20;98.30;;;;;;4054697;29;20475;-81
2021/06/05 04:59:47;;;;;;;16.37;14.80;;;18.20;98.30;;;;;;4056608;29;20539;-82
2021/06/05 05:01:51;;;;;;;16.50;15.03;;;18.40;98.30;;;;;;4056931;29;20479;-82
2021/06/05 05:03:53;;;;;;;16.40;14.90;;;18.30;98.30;;;;;;4054529;29;20560;-82
2021/06/05 05:05:59;;;;;;;15.40;14.10;;;18.30;98.30;;;;;;4053065;29;20559;-82
2021/06/05 05:08:02;;;;;;;16.27;14.67;;;18.40;98.30;;;;;;4057771;29;21005;-82
2021/06/05 05:10:05;;;;;;;15.93;14.57;;;18.30;98.30;;;;;;4056661;29;20479;-82
2021/06/05 05:12:11;;;;;;;15.80;14.50;;;18.30;98.30;;;;;;4055897;29;20480;-82
2021/06/05 05:14:14;;;;;;;14.90;13.50;;;18.30;98.30;;;;;;4050943;29;20535;-82
2021/06/05 05:16:17;;;;;;;15.90;14.30;;;18.40;98.30;;;;;;4053341;29;20502;-82
2021/06/05 05:18:33;;;;;;;15.67;14.27;;;18.50;98.30;;;;;;4344064;23;20506;-86
2021/06/05 05:20:39;;;;;;;14.67;13.37;;;18.60;98.30;;;;;;4069974;29;21098;-86
2021/06/05 05:22:41;;;;;;;18.43;13.70;;;18.50;98.30;;;;;;4071408;29;20482;-86
2021/06/05 05:24:44;;;;;;;15.73;14.23;;;18.50;98.30;;;;;;4071923;29;20840;-86
2021/06/05 05:26:46;;;;;;;17.80;16.20;;;18.50;98.30;;;;;;4071808;29;20964;-86
2021/06/05 05:28:50;;;;;;;17.13;15.47;;;18.50;98.30;;;;;;4057795;29;20570;-86
2021/06/05 05:30:56;;;;;;;15.60;14.20;;;18.50;98.30;;;;;;4063490;29;20479;-86
2021/06/05 05:32:59;;;;;;;15.43;13.97;;;18.40;98.30;;;;;;4062359;29;20988;-86
2021/06/05 05:35:04;;;;;;;16.63;15.13;;;18.40;98.30;;;;;;4062259;29;20475;-86
2021/06/05 05:37:07;;;;;;;17.03;14.20;;;18.40;98.30;;;;;;4063465;29;20491;-86
2021/06/05 05:39:13;;;;;;;15.20;13.80;;;18.40;98.30;;;;;;4064063;29;20487;-86
2021/06/05 05:41:18;;;;;;;15.00;13.70;;;18.40;98.30;;;;;;4064223;29;20998;-86
2021/06/05 05:43:20;;;;;;;13.93;12.73;;;18.40;98.30;;;;;;4066218;29;21028;-86
2021/06/05 05:45:23;;;;;;;15.33;13.67;;;18.60;98.30;;;;;;4061574;29;20570;-86
2021/06/05 05:47:26;;;;;;;14.30;13.00;;;18.70;98.30;;;;;;4062977;29;20516;-86
2021/06/05 05:49:29;;;;;;;14.50;13.10;;;18.80;98.30;;;;;;4064914;29;20821;-87
2021/06/05 05:51:33;;;;;;;14.37;12.90;;;19.00;98.30;;;;;;4063217;29;20510;-84
2021/06/05 05:53:37;;;;;;;14.43;13.23;;;19.00;98.30;;;;;;4064296;29;20477;-85
2021/06/05 05:55:39;;;;;;;16.87;14.10;;;19.10;98.30;;;;;;4064070;29;20988;-86
2021/06/05 05:57:42;;;;;;;14.37;13.07;;;19.00;98.30;;;;;;4063795;29;20490;-87
2021/06/05 05:59:44;;;;;;;13.73;12.53;;;19.00;98.30;;;;;;4064104;29;21004;-87
2021/06/05 06:01:47;;;;;;;13.83;12.53;;;19.00;98.30;;;;;;4064718;29;20475;-87
2021/06/05 06:03:52;;;;;;;14.67;13.30;;;19.10;98.30;;;;;;4062461;29;21056;-86
2021/06/05 06:05:54;;;;;;;13.87;12.63;;;19.20;98.30;;;;;;4062355;29;21373;-87
2021/06/05 06:07:58;;;;;;;14.23;12.90;;;19.20;98.30;;;;;;4064110;29;21039;-87
2021/06/05 06:10:01;;;;;;;13.30;12.10;;;19.40;98.30;;;;;;4061971;29;20567;-87
2021/06/05 06:12:04;;;;;;;13.97;12.67;;;19.60;98.30;;;;;;4061437;29;20471;-87
2021/06/05 06:14:07;;;;;;;15.23;13.83;;;19.70;98.30;;;;;;4060759;29;20477;-86
2021/06/05 06:16:11;;;;;;;18.30;16.50;;;19.80;98.30;;;;;;4063227;29;20471;-86
2021/06/05 06:18:14;;;;;;;17.40;15.60;;;19.80;98.30;;;;;;4061719;29;20926;-86
2021/06/05 06:20:20;;;;;;;14.27;12.80;;;19.90;98.30;;;;;;4063621;29;20530;-87
2021/06/05 06:22:23;;;;;;;14.03;12.60;;;19.90;98.30;;;;;;4061773;29;20558;-85
2021/06/05 06:24:27;;;;;;;14.00;12.60;;;19.90;98.30;;;;;;4062598;29;20986;-87
2021/06/05 06:26:31;;;;;;;14.37;13.27;;;19.80;98.30;;;;;;4064837;29;20490;-86
2021/06/05 06:28:36;;;;;;;13.20;11.90;;;19.80;98.30;;;;;;4066037;29;20491;-86
2021/06/05 06:30:40;;;;;;;13.67;12.37;;;20.00;98.30;;;;;;4065681;29;20810;-86
2021/06/05 06:32:47;;;;;;;12.87;11.67;;;20.00;98.30;;;;;;4065043;29;20475;-86
2021/06/05 06:34:49;;;;;;;13.20;12.10;;;20.10;98.30;;;;;;4064829;29;20477;-86
2021/06/05 06:36:51;;;;;;;12.73;11.53;;;20.20;98.30;;;;;;4065920;29;20479;-86
2021/06/05 06:38:53;;;;;;;13.23;11.87;;;20.30;98.30;;;;;;4065933;29;20715;-86
2021/06/05 06:40:58;;;;;;;15.07;11.23;;;20.30;98.30;;;;;;4062497;29;20482;-86
2021/06/05 06:43:01;;;;;;;12.73;11.53;;;20.40;98.30;;;;;;4059577;29;20471;-85
2021/06/05 06:45:05;;;;;;;12.40;11.40;;;20.40;98.30;;;;;;4061408;29;20887;-84
2021/06/05 06:47:08;;;;;;;13.50;12.10;;;20.30;98.30;;;;;;4059932;29;20573;-85
2021/06/05 06:49:12;;;;;;;11.83;10.70;;;20.40;98.30;;;;;;4056461;29;20489;-86
2021/06/05 06:51:15;;;;;;;12.47;11.27;;;20.40;98.30;;;;;;4061776;29;20463;-86
2021/06/05 06:53:19;;;;;;;13.23;12.13;;;20.40;98.30;;;;;;4061359;29;20486;-86
2021/06/05 06:55:22;;;;;;;11.67;10.63;;;20.50;98.30;;;;;;4063501;29;20522;-86
2021/06/05 06:57:28;;;;;;;12.10;11.10;;;20.60;98.30;;;;;;4062056;29;20546;-86
2021/06/05 06:59:32;;;;;;;11.90;10.80;;;20.80;98.30;;;;;;4059462;29;20498;-86
2021/06/05 07:01:35;;;;;;;11.43;10.43;;;20.90;98.30;;;;;;4055029;29;20476;-86
2021/06/05 07:03:38;;;;;;;11.40;10.30;;;21.00;98.30;;;;;;4064013;29;20538;-85
2021/06/05 07:05:40;;;;;;;10.70;9.63;;;21.10;98.30;;;;;;4065458;29;20475;-86
2021/06/05 07:07:43;;;;;;;12.33;11.10;;;21.10;98.30;;;;;;4065448;29;20503;-86
2021/06/05 07:09:46;;;;;;;11.20;10.20;;;21.20;98.30;;;;;;4065929;29;20534;-84
2021/06/05 07:11:48;;;;;;;10.93;10.03;;;21.30;98.30;;;;;;4063992;29;20510;-83
2021/06/05 07:13:52;;;;;;;10.40;9.60;;;21.50;98.30;;;;;;4062788;29;20542;-86
2021/06/05 07:15:56;;;;;;;9.97;8.97;;;21.50;98.30;;;;;;4063094;29;20493;-84
2021/06/05 07:17:59;;;;;;;9.47;8.47;;;21.60;98.30;;;;;;4062407;29;20590;-84
2021/06/05 07:20:02;;;;;;;9.47;8.60;;;21.60;98.30;;;;;;4063408;29;20500;-85
2021/06/05 07:22:05;;;;;;;9.70;8.80;;;21.70;98.30;;;;;;4063670;29;20475;-84
2021/06/05 07:24:08;;;;;;;8.20;7.50;;;21.90;98.30;;;;;;4064498;29;20474;-84
2021/06/05 07:26:16;;;;;;;9.13;8.33;;;21.90;98.30;;;;;;4063358;29;20999;-83
2021/06/05 07:28:21;;;;;;;9.73;8.27;;;21.90;98.30;;;;;;4061602;29;20494;-85
2021/06/05 07:30:25;;;;;;;8.43;7.73;;;22.00;98.30;;;;;;4062450;29;20486;-84
2021/06/05 07:32:28;;;;;;;9.07;8.13;;;22.20;98.30;;;;;;4059814;29;20467;-85
2021/06/05 07:34:31;;;;;;;9.30;8.60;;;22.30;98.30;;;;;;4060538;29;20517;-85
2021/06/05 07:36:36;;;;;;;8.73;8.03;;;22.50;98.30;;;;;;4066160;29;20482;-85
2021/06/05 07:38:39;;;;;;;9.13;8.43;;;22.60;98.30;;;;;;4066570;29;20471;-85
2021/06/05 07:40:43;;;;;;;9.27;7.87;;;22.80;98.20;;;;;;4065483;29;21140;-85
2021/06/05 07:42:45;;;;;;;8.40;7.70;;;22.90;96.70;;;;;;4065682;29;20485;-85
2021/06/05 07:44:47;;;;;;;8.80;7.90;;;22.90;95.50;;;;;;4065497;29;20479;-85
2021/06/05 07:46:56;;;;;;;7.53;6.93;;;22.90;96.10;;;;;;4066412;29;20485;-84
2021/06/05 07:48:59;;;;;;;8.57;7.73;;;22.90;96.00;;;;;;4061867;29;20824;-85
2021/06/05 07:51:03;;;;;;;8.33;7.53;;;23.00;95.60;;;;;;4066426;29;20478;-85
2021/06/05 07:53:05;;;;;;;8.43;7.57;;;23.10;96.00;;;;;;4066773;29;20490;-85
2021/06/05 07:55:09;;;;;;;8.03;7.37;;;23.20;93.10;;;;;;4063897;29;20497;-86
2021/06/05 07:57:11;;;;;;;7.37;6.70;;;23.00;92.50;;;;;;4065704;29;20495;-84
2021/06/05 07:59:14;;;;;;;7.60;6.90;;;23.00;93.60;;;;;;4066221;29;20475;-85
2021/06/05 08:01:17;;;;;;;8.03;7.13;;;23.30;93.40;;;;;;4064467;29;20498;-84
2021/06/05 08:03:20;;;;;;;8.10;7.30;;;23.20;92.40;;;;;;4056257;29;20491;-84
2021/06/05 08:05:23;;;;;;;8.33;7.20;;;23.10;92.00;;;;;;4063026;29;20479;-85
2021/06/05 08:07:26;;;;;;;7.90;7.27;;;23.10;92.60;;;;;;4064744;29;20498;-85
2021/06/05 08:09:29;;;;;;;10.90;7.13;;;23.30;92.80;;;;;;4064439;29;20965;-85
2021/06/05 08:11:32;;;;;;;8.37;6.63;;;23.50;91.60;;;;;;4064608;29;20486;-85
2021/06/05 08:13:36;;;;;;;7.20;6.50;;;23.60;91.10;;;;;;4063487;29;20530;-83
2021/06/05 08:15:41;;;;;;;7.47;6.73;;;23.60;89.80;;;;;;4059801;29;20483;-83
2021/06/05 08:17:43;;;;;;;7.47;6.87;;;23.50;89.20;;;;;;4058825;29;20505;-83
2021/06/05 08:19:54;;;;;;;7.63;7.00;;;23.60;90.30;;;;;;4057418;29;20533;-84
2021/06/05 08:21:56;;;;;;;7.47;6.87;;;23.60;89.10;;;;;;4060486;29;20510;-83
2021/06/05 08:23:59;;;;;;;7.07;6.40;;;23.70;89.90;;;;;;4060580;29;20573;-84
2021/06/05 08:26:02;;;;;;;7.20;6.60;;;23.80;88.50;;;;;;4058137;29;20966;-84
2021/06/05 08:28:07;;;;;;;7.47;6.77;;;23.80;89.00;;;;;;4061858;29;20501;-85
2021/06/05 08:30:15;;;;;;;7.57;6.97;;;23.90;88.70;;;;;;4063080;29;20463;-83
2021/06/05 08:32:18;;;;;;;6.90;6.30;;;24.10;88.10;;;;;;4063498;29;20474;-83
2021/06/05 08:34:21;;;;;;;7.70;6.90;;;24.10;88.40;;;;;;4062188;29;20484;-85
2021/06/05 08:36:29;;;;;;;7.80;7.10;;;24.20;86.80;;;;;;4061381;29;20862;-86
2021/06/05 08:38:31;;;;;;;7.13;6.53;;;24.30;86.50;;;;;;4067087;29;20585;-85
2021/06/05 08:41:00;;;;;;;7.47;6.77;;;24.30;85.50;;;;;;4066935;29;20533;-85
2021/06/05 08:43:02;;;;;;;6.23;5.73;;;24.30;85.60;;;;;;4068375;29;21007;-85
2021/06/05 08:45:08;;;;;;;7.30;6.70;;;24.40;86.40;;;;;;4068412;29;20471;-85
2021/06/05 08:47:17;;;;;;;8.40;6.47;;;24.40;85.00;;;;;;4052719;29;20557;-85
2021/06/05 08:49:22;;;;;;;6.60;6.00;;;24.40;84.40;;;;;;4065319;29;20470;-85
2021/06/05 08:51:38;;;;;;;6.90;6.30;;;24.30;83.90;;;;;;4067396;29;20463;-86
2021/06/05 08:53:41;;;;;;;6.40;5.80;;;24.40;83.80;;;;;;4065062;29;20832;-85
2021/06/05 08:55:48;;;;;;;6.90;6.30;;;24.60;83.20;;;;;;4067088;29;20471;-85
2021/06/05 08:57:58;;;;;;;6.53;5.93;;;24.70;83.00;;;;;;4067688;29;21170;-85
2021/06/05 09:00:09;;;;;;;6.87;5.50;;;24.70;81.40;;;;;;4065951;29;20564;-85
2021/06/05 09:02:13;;;;;;;6.50;5.93;;;24.80;81.30;;;;;;4066224;29;20478;-85
2021/06/05 09:04:18;;;;;;;6.90;5.90;;;24.90;82.40;;;;;;4068185;29;21264;-86
2021/06/05 09:06:24;;;;;;;6.47;5.87;;;25.00;82.10;;;;;;4066963;29;20470;-85
2021/06/05 09:08:28;;;;;;;6.80;6.10;;;25.10;82.80;;;;;;4037886;29;20507;-86
2021/06/05 09:10:43;;;;;;;6.67;5.90;;;25.30;81.20;;;;;;4063354;29;20471;-85
2021/06/05 09:12:46;;;;;;;7.03;6.50;;;25.40;80.50;;;;;;4059179;29;20483;-85
2021/06/05 09:14:56;;;;;;;6.60;5.83;;;25.50;81.00;;;;;;4068535;29;20489;-85
2021/06/05 09:17:02;;;;;;;7.60;6.50;;;25.50;81.20;;;;;;4067880;29;20527;-85
2021/06/05 09:19:28;;;;;;;6.50;5.97;;;25.60;81.30;;;;;;4061461;29;20490;-85
2021/06/05 09:21:33;;;;;;;6.70;6.10;;;25.80;80.30;;;;;;4057884;29;20509;-85
2021/06/05 09:23:39;;;;;;;8.70;6.20;;;25.80;80.90;;;;;;4046717;29;20475;-85
2021/06/05 09:25:42;;;;;;;7.03;6.13;;;25.90;81.60;;;;;;4067866;29;20467;-85
2021/06/05 09:27:44;;;;;;;6.20;5.60;;;26.20;81.90;;;;;;4067529;29;21074;-85
2021/06/05 09:29:52;;;;;;;6.90;6.23;;;26.20;81.70;;;;;;4068355;29;20926;-85
2021/06/05 09:31:58;;;;;;;6.30;5.70;;;26.20;79.00;;;;;;4067516;29;20561;-85
2021/06/05 09:34:13;;;;;;;6.97;6.20;;;26.30;79.20;;;;;;4066592;29;20558;-85
2021/06/05 09:36:21;;;;;;;7.10;6.40;;;26.20;79.70;;;;;;4068104;29;20473;-85
2021/06/05 09:38:31;;;;;;;6.47;5.87;;;26.30;79.10;;;;;;4064830;29;20576;-84
2021/06/05 09:40:36;;;;;;;6.13;5.63;;;26.50;80.60;;;;;;4066283;29;20486;-85
2021/06/05 09:42:42;;;;;;;6.63;6.13;;;26.70;79.80;;;;;;4068098;29;20840;-86
2021/06/05 09:44:48;;;;;;;7.00;6.17;;;26.70;79.10;;;;;;4067470;29;20482;-85
2021/06/05 09:46:58;;;;;;;6.63;6.13;;;26.70;77.90;;;;;;4067442;29;20466;-86
2021/06/05 09:49:18;;;;;;;6.93;6.33;;;26.50;77.10;;;;;;4065132;29;20489;-85
2021/06/05 09:51:32;;;;;;;6.70;6.03;;;26.40;77.40;;;;;;4067089;29;20481;-85
2021/06/05 09:53:37;;;;;;;6.70;6.10;;;26.50;78.40;;;;;;4067675;29;20475;-85
2021/06/05 09:55:42;;;;;;;6.60;6.10;;;26.70;78.70;;;;;;4067147;29;20941;-84
2021/06/05 09:57:46;;;;;;;6.17;5.67;;;27.00;78.50;;;;;;4067989;29;20507;-85
2021/06/05 10:00:00;;;;;;;7.30;6.60;;;27.00;76.50;;;;;;4068060;29;20821;-85
2021/06/05 10:02:09;;;;;;;6.53;6.07;;;26.80;76.70;;;;;;4063858;29;20508;-86
2021/06/05 10:04:17;;;;;;;5.90;5.40;;;26.90;77.70;;;;;;4061047;29;20474;-85
2021/06/05 10:06:33;;;;;;;6.27;5.77;;;27.20;78.60;;;;;;4067454;29;20486;-85
2021/06/05 10:08:38;;;;;;;7.00;5.97;;;27.20;77.60;;;;;;4062702;29;20883;-85
2021/06/05 10:10:44;;;;;;;6.80;6.30;;;27.20;77.70;;;;;;4059818;29;20938;-86
2021/06/05 10:12:49;;;;;;;6.93;6.20;;;26.80;77.40;;;;;;4067795;29;20494;-85
2021/06/05 10:14:57;;;;;;;6.27;5.67;;;26.70;78.90;;;;;;4063627;29;20992;-85
2021/06/05 10:17:06;;;;;;;6.53;5.93;;;26.80;78.90;;;;;;4067228;29;20510;-84
2021/06/05 10:19:17;;;;;;;7.30;6.70;;;27.00;77.60;;;;;;4069125;29;21319;-87
2021/06/05 10:27:35;;;;;;;6.70;6.20;;;26.80;78.40;;;;;;4053522;29;20470;-84
2021/06/05 10:33:16;;;;;;;6.47;5.87;;;27.00;78.20;;;;;;4006552;29;21138;-84
2021/06/05 10:35:26;;;;;;;7.13;6.50;;;27.10;78.40;;;;;;4036260;29;20469;-85
2021/06/05 10:37:31;;;;;;;7.10;6.40;;;27.40;78.80;;;;;;4055077;29;20490;-84
2021/06/05 10:39:40;;;;;;;6.83;6.23;;;27.60;79.20;;;;;;4069168;29;20475;-84
2021/06/05 10:41:46;;;;;;;7.50;6.80;;;27.80;77.60;;;;;;4066895;29;20850;-85
2021/06/05 10:43:51;;;;;;;7.37;6.67;;;28.10;78.20;;;;;;4069623;29;20473;-85
2021/06/05 10:45:57;;;;;;;7.00;6.50;;;28.40;75.60;;;;;;4059097;29;20538;-85
2021/06/05 10:48:05;;;;;;;6.83;6.23;;;28.50;75.50;;;;;;4069241;29;20499;-84